sensor_id;sensor_type;location;lat;lon;timestamp;P1;durP1;ratioP1;P2;durP2;ratioP2
34673;SDS011;20879;55.668;37.858;2022-11-15T00:02:01;1.50;;;0.80;;
34673;SDS011;20879;55.668;37.858;2022-11-15T00:04:49;3.95;;;0.90;;
34673;SDS011;20879;55.668;37.858;2022-11-15T00:07:38;1.35;;;0.60;;
34673;SDS011;20879;55.668;37.858;2022-11-15T00:10:30;3.25;;;0.70;;
34673;SDS011;20879;55.668;37.858;2022-11-15T00:13:19;1.48;;;0.73;;
34673;SDS011;20879;55.668;37.858;2022-11-15T00:16:15;0.73;;;0.40;;
34673;SDS011;20879;55.668;37.858;2022-11-15T00:19:09;3.15;;;0.80;;
34673;SDS011;20879;55.668;37.858;2022-11-15T00:21:57;1.20;;;0.65;;
34673;SDS011;20879;55.668;37.858;2022-11-15T00:24:45;3.70;;;0.90;;
34673;SDS011;20879;55.668;37.858;2022-11-15T00:27:33;2.65;;;0.90;;
34673;SDS011;20879;55.668;37.858;2022-11-15T00:30:26;1.25;;;0.60;;
34673;SDS011;20879;55.668;37.858;2022-11-15T00:33:04;4.20;;;0.80;;
34673;SDS011;20879;55.668;37.858;2022-11-15T00:35:53;1.65;;;0.60;;
34673;SDS011;20879;55.668;37.858;2022-11-15T00:38:46;1.00;;;0.85;;
34673;SDS011;20879;55.668;37.858;2022-11-15T00:41:45;3.58;;;0.75;;
34673;SDS011;20879;55.668;37.858;2022-11-15T00:44:33;1.13;;;0.70;;
34673;SDS011;20879;55.668;37.858;2022-11-15T00:47:21;3.65;;;0.98;;
34673;SDS011;20879;55.668;37.858;2022-11-15T00:50:11;2.50;;;0.95;;
34673;SDS011;20879;55.668;37.858;2022-11-15T00:53:00;0.95;;;0.77;;
34673;SDS011;20879;55.668;37.858;2022-11-15T00:55:58;2.15;;;1.02;;
34673;SDS011;20879;55.668;37.858;2022-11-15T00:58:45;1.00;;;0.70;;
34673;SDS011;20879;55.668;37.858;2022-11-15T01:01:40;2.72;;;0.95;;
34673;SDS011;20879;55.668;37.858;2022-11-15T01:04:28;2.47;;;1.10;;
34673;SDS011;20879;55.668;37.858;2022-11-15T01:07:18;2.65;;;1.17;;
34673;SDS011;20879;55.668;37.858;2022-11-15T01:10:06;2.92;;;0.90;;
34673;SDS011;20879;55.668;37.858;2022-11-15T01:12:54;2.47;;;0.73;;
34673;SDS011;20879;55.668;37.858;2022-11-15T01:15:42;0.85;;;0.50;;
34673;SDS011;20879;55.668;37.858;2022-11-15T01:18:18;3.50;;;0.95;;
34673;SDS011;20879;55.668;37.858;2022-11-15T01:21:07;2.72;;;0.70;;
34673;SDS011;20879;55.668;37.858;2022-11-15T01:23:58;1.05;;;0.73;;
34673;SDS011;20879;55.668;37.858;2022-11-15T01:26:46;2.35;;;0.95;;
34673;SDS011;20879;55.668;37.858;2022-11-15T01:29:34;1.15;;;0.65;;
34673;SDS011;20879;55.668;37.858;2022-11-15T01:32:23;1.70;;;0.70;;
34673;SDS011;20879;55.668;37.858;2022-11-15T01:35:11;0.88;;;0.75;;
34673;SDS011;20879;55.668;37.858;2022-11-15T01:37:47;3.45;;;0.77;;
34673;SDS011;20879;55.668;37.858;2022-11-15T01:40:37;2.03;;;0.80;;
34673;SDS011;20879;55.668;37.858;2022-11-15T01:43:27;2.35;;;0.95;;
34673;SDS011;20879;55.668;37.858;2022-11-15T01:46:22;2.30;;;0.90;;
34673;SDS011;20879;55.668;37.858;2022-11-15T01:49:19;1.63;;;0.80;;
34673;SDS011;20879;55.668;37.858;2022-11-15T01:52:10;2.72;;;0.70;;
34673;SDS011;20879;55.668;37.858;2022-11-15T01:55:02;3.87;;;1.00;;
34673;SDS011;20879;55.668;37.858;2022-11-15T01:57:43;1.25;;;0.68;;
34673;SDS011;20879;55.668;37.858;2022-11-15T02:00:33;4.55;;;1.00;;
34673;SDS011;20879;55.668;37.858;2022-11-15T02:03:30;3.70;;;1.00;;
34673;SDS011;20879;55.668;37.858;2022-11-15T02:06:24;2.53;;;0.88;;
34673;SDS011;20879;55.668;37.858;2022-11-15T02:09:12;2.47;;;0.93;;
34673;SDS011;20879;55.668;37.858;2022-11-15T02:12:00;1.52;;;0.90;;
34673;SDS011;20879;55.668;37.858;2022-11-15T02:14:51;1.83;;;0.90;;
34673;SDS011;20879;55.668;37.858;2022-11-15T02:17:45;2.55;;;1.08;;
34673;SDS011;20879;55.668;37.858;2022-11-15T02:24:13;2.00;;;1.02;;
34673;SDS011;20879;55.668;37.858;2022-11-15T02:27:24;8.35;;;1.10;;
34673;SDS011;20879;55.668;37.858;2022-11-15T02:30:38;4.43;;;1.00;;
34673;SDS011;20879;55.668;37.858;2022-11-15T02:33:36;2.53;;;1.00;;
34673;SDS011;20879;55.668;37.858;2022-11-15T02:36:33;2.20;;;0.73;;
34673;SDS011;20879;55.668;37.858;2022-11-15T02:39:28;3.42;;;0.80;;
34673;SDS011;20879;55.668;37.858;2022-11-15T02:42:23;3.28;;;0.80;;
34673;SDS011;20879;55.668;37.858;2022-11-15T02:45:30;1.38;;;0.77;;
34673;SDS011;20879;55.668;37.858;2022-11-15T02:48:29;1.65;;;0.80;;
34673;SDS011;20879;55.668;37.858;2022-11-15T02:51:18;3.60;;;0.97;;
34673;SDS011;20879;55.668;37.858;2022-11-15T02:54:10;3.25;;;1.10;;
34673;SDS011;20879;55.668;37.858;2022-11-15T02:57:03;3.03;;;0.90;;
34673;SDS011;20879;55.668;37.858;2022-11-15T03:00:01;4.15;;;0.88;;
34673;SDS011;20879;55.668;37.858;2022-11-15T03:03:04;4.30;;;1.02;;
34673;SDS011;20879;55.668;37.858;2022-11-15T03:06:12;2.10;;;0.93;;
34673;SDS011;20879;55.668;37.858;2022-11-15T03:12:03;4.63;;;1.45;;
34673;SDS011;20879;55.668;37.858;2022-11-15T03:15:00;3.65;;;1.23;;
34673;SDS011;20879;55.668;37.858;2022-11-15T03:17:54;1.80;;;0.73;;
34673;SDS011;20879;55.668;37.858;2022-11-15T03:20:45;4.65;;;1.20;;
34673;SDS011;20879;55.668;37.858;2022-11-15T03:23:38;3.03;;;1.23;;
34673;SDS011;20879;55.668;37.858;2022-11-15T03:26:27;3.50;;;0.98;;
34673;SDS011;20879;55.668;37.858;2022-11-15T03:29:06;3.80;;;1.15;;
34673;SDS011;20879;55.668;37.858;2022-11-15T03:32:00;1.40;;;0.68;;
34673;SDS011;20879;55.668;37.858;2022-11-15T03:35:04;3.00;;;0.90;;
34673;SDS011;20879;55.668;37.858;2022-11-15T03:37:57;3.42;;;1.05;;
34673;SDS011;20879;55.668;37.858;2022-11-15T03:40:59;2.03;;;1.02;;
34673;SDS011;20879;55.668;37.858;2022-11-15T03:43:49;0.90;;;0.70;;
34673;SDS011;20879;55.668;37.858;2022-11-15T03:46:44;4.35;;;1.20;;
34673;SDS011;20879;55.668;37.858;2022-11-15T03:49:36;2.50;;;0.88;;
34673;SDS011;20879;55.668;37.858;2022-11-15T03:52:35;1.52;;;0.80;;
34673;SDS011;20879;55.668;37.858;2022-11-15T03:55:23;2.90;;;1.00;;
34673;SDS011;20879;55.668;37.858;2022-11-15T03:58:18;3.55;;;1.00;;
34673;SDS011;20879;55.668;37.858;2022-11-15T04:01:06;1.27;;;0.75;;
34673;SDS011;20879;55.668;37.858;2022-11-15T04:03:54;3.70;;;1.00;;
34673;SDS011;20879;55.668;37.858;2022-11-15T04:06:47;1.40;;;0.88;;
34673;SDS011;20879;55.668;37.858;2022-11-15T04:09:40;5.75;;;1.10;;
34673;SDS011;20879;55.668;37.858;2022-11-15T04:12:42;1.98;;;0.60;;
34673;SDS011;20879;55.668;37.858;2022-11-15T04:15:34;0.70;;;0.50;;
34673;SDS011;20879;55.668;37.858;2022-11-15T04:18:22;1.65;;;0.80;;
34673;SDS011;20879;55.668;37.858;2022-11-15T04:21:10;1.85;;;0.90;;
34673;SDS011;20879;55.668;37.858;2022-11-15T04:24:26;2.30;;;1.17;;
34673;SDS011;20879;55.668;37.858;2022-11-15T04:27:13;1.40;;;0.95;;
34673;SDS011;20879;55.668;37.858;2022-11-15T04:30:07;4.97;;;0.90;;
34673;SDS011;20879;55.668;37.858;2022-11-15T04:33:00;3.33;;;0.77;;
34673;SDS011;20879;55.668;37.858;2022-11-15T04:36:00;3.60;;;1.20;;
34673;SDS011;20879;55.668;37.858;2022-11-15T04:39:01;2.30;;;0.82;;
34673;SDS011;20879;55.668;37.858;2022-11-15T04:41:54;2.35;;;0.70;;
34673;SDS011;20879;55.668;37.858;2022-11-15T04:44:47;1.88;;;0.70;;
34673;SDS011;20879;55.668;37.858;2022-11-15T04:47:35;2.35;;;0.90;;
34673;SDS011;20879;55.668;37.858;2022-11-15T04:50:27;2.25;;;0.95;;
34673;SDS011;20879;55.668;37.858;2022-11-15T04:53:21;5.15;;;1.00;;
34673;SDS011;20879;55.668;37.858;2022-11-15T04:56:09;5.07;;;0.88;;
34673;SDS011;20879;55.668;37.858;2022-11-15T04:58:58;3.25;;;1.10;;
34673;SDS011;20879;55.668;37.858;2022-11-15T05:01:45;7.60;;;1.35;;
34673;SDS011;20879;55.668;37.858;2022-11-15T05:04:33;2.08;;;1.00;;
34673;SDS011;20879;55.668;37.858;2022-11-15T05:07:21;2.38;;;1.25;;
34673;SDS011;20879;55.668;37.858;2022-11-15T05:10:02;1.63;;;1.13;;
34673;SDS011;20879;55.668;37.858;2022-11-15T05:12:38;3.70;;;1.02;;
34673;SDS011;20879;55.668;37.858;2022-11-15T05:15:26;4.13;;;1.00;;
34673;SDS011;20879;55.668;37.858;2022-11-15T05:18:20;4.13;;;1.20;;
34673;SDS011;20879;55.668;37.858;2022-11-15T05:21:09;3.83;;;1.30;;
34673;SDS011;20879;55.668;37.858;2022-11-15T05:24:01;5.32;;;1.30;;
34673;SDS011;20879;55.668;37.858;2022-11-15T05:26:49;4.05;;;1.25;;
34673;SDS011;20879;55.668;37.858;2022-11-15T05:29:42;4.57;;;1.20;;
34673;SDS011;20879;55.668;37.858;2022-11-15T05:32:29;7.03;;;2.10;;
34673;SDS011;20879;55.668;37.858;2022-11-15T05:35:25;2.65;;;1.02;;
34673;SDS011;20879;55.668;37.858;2022-11-15T05:38:18;4.20;;;1.08;;
34673;SDS011;20879;55.668;37.858;2022-11-15T05:41:08;3.63;;;1.23;;
34673;SDS011;20879;55.668;37.858;2022-11-15T05:43:56;5.90;;;1.35;;
34673;SDS011;20879;55.668;37.858;2022-11-15T05:46:51;6.30;;;1.00;;
34673;SDS011;20879;55.668;37.858;2022-11-15T05:49:30;4.05;;;1.00;;
34673;SDS011;20879;55.668;37.858;2022-11-15T05:52:33;2.72;;;1.10;;
34673;SDS011;20879;55.668;37.858;2022-11-15T05:55:24;3.50;;;1.00;;
34673;SDS011;20879;55.668;37.858;2022-11-15T05:58:13;5.03;;;1.23;;
34673;SDS011;20879;55.668;37.858;2022-11-15T06:01:04;3.75;;;1.17;;
34673;SDS011;20879;55.668;37.858;2022-11-15T06:03:52;5.45;;;1.42;;
34673;SDS011;20879;55.668;37.858;2022-11-15T06:06:40;6.57;;;1.27;;
34673;SDS011;20879;55.668;37.858;2022-11-15T06:09:28;3.72;;;1.30;;
34673;SDS011;20879;55.668;37.858;2022-11-15T06:12:16;9.05;;;1.45;;
34673;SDS011;20879;55.668;37.858;2022-11-15T06:15:08;5.53;;;1.85;;
34673;SDS011;20879;55.668;37.858;2022-11-15T06:17:56;5.68;;;1.42;;
34673;SDS011;20879;55.668;37.858;2022-11-15T06:20:44;9.90;;;2.85;;
34673;SDS011;20879;55.668;37.858;2022-11-15T06:23:33;4.47;;;1.55;;
34673;SDS011;20879;55.668;37.858;2022-11-15T06:26:21;2.55;;;1.15;;
34673;SDS011;20879;55.668;37.858;2022-11-15T06:29:09;6.78;;;1.73;;
34673;SDS011;20879;55.668;37.858;2022-11-15T06:31:59;6.13;;;2.38;;
34673;SDS011;20879;55.668;37.858;2022-11-15T06:34:52;3.47;;;1.33;;
34673;SDS011;20879;55.668;37.858;2022-11-15T06:37:40;2.95;;;1.40;;
34673;SDS011;20879;55.668;37.858;2022-11-15T06:40:28;3.95;;;1.55;;
34673;SDS011;20879;55.668;37.858;2022-11-15T06:43:16;3.72;;;1.40;;
34673;SDS011;20879;55.668;37.858;2022-11-15T06:46:05;5.70;;;1.27;;
34673;SDS011;20879;55.668;37.858;2022-11-15T06:48:57;4.55;;;1.70;;
34673;SDS011;20879;55.668;37.858;2022-11-15T06:51:41;2.13;;;0.93;;
34673;SDS011;20879;55.668;37.858;2022-11-15T06:54:29;6.18;;;1.77;;
34673;SDS011;20879;55.668;37.858;2022-11-15T06:57:23;3.20;;;1.10;;
34673;SDS011;20879;55.668;37.858;2022-11-15T07:00:14;7.50;;;1.48;;
34673;SDS011;20879;55.668;37.858;2022-11-15T07:03:04;4.82;;;1.20;;
34673;SDS011;20879;55.668;37.858;2022-11-15T07:05:54;3.90;;;1.35;;
34673;SDS011;20879;55.668;37.858;2022-11-15T07:08:51;4.35;;;1.58;;
34673;SDS011;20879;55.668;37.858;2022-11-15T07:11:40;5.53;;;1.60;;
34673;SDS011;20879;55.668;37.858;2022-11-15T07:14:28;5.88;;;1.50;;
34673;SDS011;20879;55.668;37.858;2022-11-15T07:17:16;5.47;;;1.40;;
34673;SDS011;20879;55.668;37.858;2022-11-15T07:20:04;7.00;;;1.50;;
34673;SDS011;20879;55.668;37.858;2022-11-15T07:23:01;4.85;;;1.50;;
34673;SDS011;20879;55.668;37.858;2022-11-15T07:25:50;6.13;;;1.90;;
34673;SDS011;20879;55.668;37.858;2022-11-15T07:28:38;4.90;;;1.48;;
34673;SDS011;20879;55.668;37.858;2022-11-15T07:31:26;3.55;;;1.55;;
34673;SDS011;20879;55.668;37.858;2022-11-15T07:34:14;3.85;;;1.75;;
34673;SDS011;20879;55.668;37.858;2022-11-15T07:37:02;8.40;;;1.75;;
34673;SDS011;20879;55.668;37.858;2022-11-15T07:39:57;6.25;;;2.75;;
34673;SDS011;20879;55.668;37.858;2022-11-15T07:42:44;3.45;;;1.35;;
34673;SDS011;20879;55.668;37.858;2022-11-15T07:45:44;11.27;;;1.88;;
34673;SDS011;20879;55.668;37.858;2022-11-15T07:48:43;3.67;;;1.42;;
34673;SDS011;20879;55.668;37.858;2022-11-15T07:51:31;5.72;;;1.33;;
34673;SDS011;20879;55.668;37.858;2022-11-15T07:54:20;5.93;;;1.50;;
34673;SDS011;20879;55.668;37.858;2022-11-15T07:57:10;2.75;;;1.27;;
34673;SDS011;20879;55.668;37.858;2022-11-15T07:59:58;2.88;;;1.30;;
34673;SDS011;20879;55.668;37.858;2022-11-15T08:02:46;6.30;;;1.50;;
34673;SDS011;20879;55.668;37.858;2022-11-15T08:05:35;6.43;;;1.50;;
34673;SDS011;20879;55.668;37.858;2022-11-15T08:08:29;5.97;;;1.60;;
34673;SDS011;20879;55.668;37.858;2022-11-15T08:11:17;6.15;;;1.45;;
34673;SDS011;20879;55.668;37.858;2022-11-15T08:14:12;6.63;;;1.90;;
34673;SDS011;20879;55.668;37.858;2022-11-15T08:17:02;5.57;;;1.83;;
34673;SDS011;20879;55.668;37.858;2022-11-15T08:19:50;8.43;;;2.08;;
34673;SDS011;20879;55.668;37.858;2022-11-15T08:22:38;8.32;;;2.13;;
34673;SDS011;20879;55.668;37.858;2022-11-15T08:25:26;10.70;;;1.77;;
34673;SDS011;20879;55.668;37.858;2022-11-15T08:28:22;8.98;;;2.00;;
34673;SDS011;20879;55.668;37.858;2022-11-15T08:31:17;8.88;;;1.75;;
34673;SDS011;20879;55.668;37.858;2022-11-15T08:34:06;6.47;;;1.90;;
34673;SDS011;20879;55.668;37.858;2022-11-15T08:36:54;8.77;;;1.80;;
34673;SDS011;20879;55.668;37.858;2022-11-15T08:39:48;7.45;;;1.95;;
34673;SDS011;20879;55.668;37.858;2022-11-15T08:42:35;9.18;;;2.15;;
34673;SDS011;20879;55.668;37.858;2022-11-15T08:45:24;6.47;;;2.08;;
34673;SDS011;20879;55.668;37.858;2022-11-15T08:48:20;9.68;;;2.47;;
34673;SDS011;20879;55.668;37.858;2022-11-15T08:51:12;9.70;;;2.50;;
34673;SDS011;20879;55.668;37.858;2022-11-15T08:54:02;10.45;;;1.83;;
34673;SDS011;20879;55.668;37.858;2022-11-15T08:56:50;6.75;;;2.10;;
34673;SDS011;20879;55.668;37.858;2022-11-15T08:59:38;6.50;;;2.05;;
34673;SDS011;20879;55.668;37.858;2022-11-15T09:02:26;10.13;;;2.28;;
34673;SDS011;20879;55.668;37.858;2022-11-15T09:05:16;6.85;;;2.45;;
34673;SDS011;20879;55.668;37.858;2022-11-15T09:11:11;7.83;;;2.23;;
34673;SDS011;20879;55.668;37.858;2022-11-15T09:14:01;11.70;;;2.50;;
34673;SDS011;20879;55.668;37.858;2022-11-15T09:16:49;6.55;;;2.20;;
34673;SDS011;20879;55.668;37.858;2022-11-15T09:19:37;9.40;;;3.08;;
34673;SDS011;20879;55.668;37.858;2022-11-15T09:22:27;4.60;;;2.00;;
34673;SDS011;20879;55.668;37.858;2022-11-15T09:25:05;10.27;;;2.50;;
34673;SDS011;20879;55.668;37.858;2022-11-15T09:27:56;8.02;;;2.50;;
34673;SDS011;20879;55.668;37.858;2022-11-15T09:30:45;5.40;;;2.08;;
34673;SDS011;20879;55.668;37.858;2022-11-15T09:33:32;8.15;;;2.50;;
34673;SDS011;20879;55.668;37.858;2022-11-15T09:36:26;5.53;;;2.22;;
34673;SDS011;20879;55.668;37.858;2022-11-15T09:39:18;9.10;;;1.92;;
34673;SDS011;20879;55.668;37.858;2022-11-15T09:42:18;6.05;;;2.33;;
34673;SDS011;20879;55.668;37.858;2022-11-15T09:45:18;7.20;;;2.28;;
34673;SDS011;20879;55.668;37.858;2022-11-15T09:48:26;8.90;;;2.15;;
34673;SDS011;20879;55.668;37.858;2022-11-15T09:51:28;9.32;;;2.30;;
34673;SDS011;20879;55.668;37.858;2022-11-15T09:54:04;13.30;;;2.50;;
34673;SDS011;20879;55.668;37.858;2022-11-15T09:57:04;6.60;;;2.25;;
34673;SDS011;20879;55.668;37.858;2022-11-15T09:59:58;8.18;;;2.30;;
34673;SDS011;20879;55.668;37.858;2022-11-15T10:02:58;10.43;;;2.80;;
34673;SDS011;20879;55.668;37.858;2022-11-15T10:05:43;6.25;;;2.47;;
34673;SDS011;20879;55.668;37.858;2022-11-15T10:08:22;8.63;;;2.90;;
34673;SDS011;20879;55.668;37.858;2022-11-15T10:11:08;8.18;;;2.50;;
34673;SDS011;20879;55.668;37.858;2022-11-15T10:14:02;12.02;;;2.92;;
34673;SDS011;20879;55.668;37.858;2022-11-15T10:16:51;12.55;;;2.60;;
34673;SDS011;20879;55.668;37.858;2022-11-15T10:19:47;11.82;;;2.78;;
34673;SDS011;20879;55.668;37.858;2022-11-15T10:22:34;10.85;;;3.15;;
34673;SDS011;20879;55.668;37.858;2022-11-15T10:25:16;14.80;;;2.70;;
34673;SDS011;20879;55.668;37.858;2022-11-15T10:27:55;6.07;;;2.22;;
34673;SDS011;20879;55.668;37.858;2022-11-15T10:30:35;8.35;;;2.50;;
34673;SDS011;20879;55.668;37.858;2022-11-15T10:33:15;7.88;;;2.38;;
34673;SDS011;20879;55.668;37.858;2022-11-15T10:36:13;8.85;;;2.60;;
34673;SDS011;20879;55.668;37.858;2022-11-15T10:38:52;8.77;;;2.25;;
34673;SDS011;20879;55.668;37.858;2022-11-15T10:41:29;8.20;;;2.53;;
34673;SDS011;20879;55.668;37.858;2022-11-15T10:44:18;8.88;;;2.35;;
34673;SDS011;20879;55.668;37.858;2022-11-15T10:52:59;5.38;;;2.40;;
34673;SDS011;20879;55.668;37.858;2022-11-15T10:55:31;10.32;;;2.30;;
34673;SDS011;20879;55.668;37.858;2022-11-15T10:58:03;8.88;;;2.83;;
34673;SDS011;20879;55.668;37.858;2022-11-15T11:00:35;9.45;;;2.65;;
34673;SDS011;20879;55.668;37.858;2022-11-15T11:03:25;14.35;;;3.03;;
34673;SDS011;20879;55.668;37.858;2022-11-15T11:06:07;6.65;;;2.88;;
34673;SDS011;20879;55.668;37.858;2022-11-15T11:08:38;7.15;;;2.20;;
34673;SDS011;20879;55.668;37.858;2022-11-15T11:11:07;12.48;;;3.28;;
34673;SDS011;20879;55.668;37.858;2022-11-15T11:13:43;12.40;;;3.00;;
34673;SDS011;20879;55.668;37.858;2022-11-15T11:16:19;8.05;;;3.20;;
34673;SDS011;20879;55.668;37.858;2022-11-15T11:19:08;9.48;;;3.22;;
34673;SDS011;20879;55.668;37.858;2022-11-15T11:21:56;16.45;;;3.40;;
34673;SDS011;20879;55.668;37.858;2022-11-15T11:24:31;13.85;;;3.13;;
34673;SDS011;20879;55.668;37.858;2022-11-15T11:27:26;14.05;;;2.60;;
34673;SDS011;20879;55.668;37.858;2022-11-15T11:30:10;6.55;;;2.53;;
34673;SDS011;20879;55.668;37.858;2022-11-15T11:35:45;12.13;;;2.78;;
34673;SDS011;20879;55.668;37.858;2022-11-15T11:38:34;6.03;;;1.95;;
34673;SDS011;20879;55.668;37.858;2022-11-15T11:41:14;6.20;;;2.50;;
34673;SDS011;20879;55.668;37.858;2022-11-15T11:43:59;6.78;;;2.47;;
34673;SDS011;20879;55.668;37.858;2022-11-15T11:46:46;8.90;;;2.33;;
34673;SDS011;20879;55.668;37.858;2022-11-15T11:49:23;8.30;;;2.20;;
34673;SDS011;20879;55.668;37.858;2022-11-15T11:51:59;8.02;;;2.55;;
34673;SDS011;20879;55.668;37.858;2022-11-15T11:54:38;6.93;;;2.80;;
34673;SDS011;20879;55.668;37.858;2022-11-15T11:57:23;7.90;;;2.45;;
34673;SDS011;20879;55.668;37.858;2022-11-15T12:00:03;9.20;;;2.60;;
34673;SDS011;20879;55.668;37.858;2022-11-15T12:02:41;6.57;;;2.75;;
34673;SDS011;20879;55.668;37.858;2022-11-15T12:05:16;6.97;;;2.40;;
34673;SDS011;20879;55.668;37.858;2022-11-15T12:07:52;6.70;;;2.30;;
34673;SDS011;20879;55.668;37.858;2022-11-15T12:10:32;7.93;;;2.50;;
34673;SDS011;20879;55.668;37.858;2022-11-15T12:16:05;4.85;;;1.85;;
34673;SDS011;20879;55.668;37.858;2022-11-15T12:18:41;8.52;;;2.88;;
34673;SDS011;20879;55.668;37.858;2022-11-15T12:21:16;8.70;;;2.80;;
34673;SDS011;20879;55.668;37.858;2022-11-15T12:23:55;5.65;;;2.33;;
34673;SDS011;20879;55.668;37.858;2022-11-15T12:26:31;5.22;;;2.83;;
34673;SDS011;20879;55.668;37.858;2022-11-15T12:29:09;7.60;;;2.47;;
34673;SDS011;20879;55.668;37.858;2022-11-15T12:31:48;6.00;;;2.55;;
34673;SDS011;20879;55.668;37.858;2022-11-15T12:40:25;5.60;;;2.42;;
34673;SDS011;20879;55.668;37.858;2022-11-15T12:46:19;10.82;;;3.10;;
34673;SDS011;20879;55.668;37.858;2022-11-15T12:55:31;10.88;;;2.60;;
34673;SDS011;20879;55.668;37.858;2022-11-15T13:01:09;5.95;;;2.78;;
34673;SDS011;20879;55.668;37.858;2022-11-15T13:06:44;7.32;;;2.90;;
34673;SDS011;20879;55.668;37.858;2022-11-15T13:12:01;12.38;;;4.20;;
34673;SDS011;20879;55.668;37.858;2022-11-15T13:17:23;6.82;;;2.88;;
34673;SDS011;20879;55.668;37.858;2022-11-15T13:22:48;7.53;;;2.90;;
34673;SDS011;20879;55.668;37.858;2022-11-15T13:28:33;6.80;;;2.83;;
34673;SDS011;20879;55.668;37.858;2022-11-15T13:31:15;6.38;;;2.88;;
34673;SDS011;20879;55.668;37.858;2022-11-15T13:33:50;6.80;;;2.65;;
34673;SDS011;20879;55.668;37.858;2022-11-15T13:36:25;8.10;;;2.70;;
34673;SDS011;20879;55.668;37.858;2022-11-15T13:39:04;5.15;;;2.60;;
34673;SDS011;20879;55.668;37.858;2022-11-15T13:41:44;7.03;;;2.47;;
34673;SDS011;20879;55.668;37.858;2022-11-15T13:44:20;8.23;;;3.00;;
34673;SDS011;20879;55.668;37.858;2022-11-15T13:47:00;6.90;;;3.10;;
34673;SDS011;20879;55.668;37.858;2022-11-15T13:49:36;9.48;;;2.80;;
34673;SDS011;20879;55.668;37.858;2022-11-15T13:52:06;8.32;;;2.75;;
34673;SDS011;20879;55.668;37.858;2022-11-15T13:54:38;5.32;;;2.72;;
34673;SDS011;20879;55.668;37.858;2022-11-15T13:57:12;8.38;;;2.80;;
34673;SDS011;20879;55.668;37.858;2022-11-15T13:59:47;7.10;;;2.75;;
34673;SDS011;20879;55.668;37.858;2022-11-15T14:02:26;6.72;;;3.22;;
34673;SDS011;20879;55.668;37.858;2022-11-15T14:04:59;10.10;;;3.20;;
34673;SDS011;20879;55.668;37.858;2022-11-15T14:07:31;8.02;;;3.38;;
34673;SDS011;20879;55.668;37.858;2022-11-15T14:10:17;7.35;;;3.15;;
34673;SDS011;20879;55.668;37.858;2022-11-15T14:12:53;8.77;;;3.47;;
34673;SDS011;20879;55.668;37.858;2022-11-15T14:15:28;8.20;;;3.42;;
34673;SDS011;20879;55.668;37.858;2022-11-15T14:18:00;9.15;;;3.60;;
34673;SDS011;20879;55.668;37.858;2022-11-15T14:20:34;9.93;;;3.60;;
34673;SDS011;20879;55.668;37.858;2022-11-15T14:23:18;10.07;;;3.50;;
34673;SDS011;20879;55.668;37.858;2022-11-15T14:25:52;8.65;;;2.85;;
34673;SDS011;20879;55.668;37.858;2022-11-15T14:28:29;8.43;;;3.50;;
34673;SDS011;20879;55.668;37.858;2022-11-15T14:31:04;7.93;;;3.67;;
34673;SDS011;20879;55.668;37.858;2022-11-15T14:33:40;8.93;;;3.80;;
34673;SDS011;20879;55.668;37.858;2022-11-15T14:36:11;8.07;;;3.67;;
34673;SDS011;20879;55.668;37.858;2022-11-15T14:38:48;6.95;;;3.45;;
34673;SDS011;20879;55.668;37.858;2022-11-15T14:41:19;7.55;;;3.58;;
34673;SDS011;20879;55.668;37.858;2022-11-15T14:43:50;11.48;;;3.80;;
34673;SDS011;20879;55.668;37.858;2022-11-15T14:46:22;10.07;;;4.18;;
34673;SDS011;20879;55.668;37.858;2022-11-15T14:48:51;8.68;;;3.83;;
34673;SDS011;20879;55.668;37.858;2022-11-15T14:51:20;7.53;;;4.18;;
34673;SDS011;20879;55.668;37.858;2022-11-15T14:53:50;8.60;;;3.65;;
34673;SDS011;20879;55.668;37.858;2022-11-15T14:56:26;11.52;;;4.20;;
34673;SDS011;20879;55.668;37.858;2022-11-15T14:58:56;11.00;;;3.90;;
34673;SDS011;20879;55.668;37.858;2022-11-15T15:01:27;7.38;;;3.65;;
34673;SDS011;20879;55.668;37.858;2022-11-15T15:04:02;8.90;;;3.60;;
34673;SDS011;20879;55.668;37.858;2022-11-15T15:06:31;7.45;;;3.38;;
34673;SDS011;20879;55.668;37.858;2022-11-15T15:09:05;8.25;;;4.03;;
34673;SDS011;20879;55.668;37.858;2022-11-15T15:11:35;8.50;;;3.28;;
34673;SDS011;20879;55.668;37.858;2022-11-15T15:14:04;8.98;;;3.55;;
34673;SDS011;20879;55.668;37.858;2022-11-15T15:16:41;9.77;;;3.63;;
34673;SDS011;20879;55.668;37.858;2022-11-15T15:19:10;9.40;;;3.80;;
34673;SDS011;20879;55.668;37.858;2022-11-15T15:21:39;9.32;;;4.32;;
34673;SDS011;20879;55.668;37.858;2022-11-15T15:24:08;9.98;;;4.45;;
34673;SDS011;20879;55.668;37.858;2022-11-15T15:26:42;11.68;;;4.65;;
34673;SDS011;20879;55.668;37.858;2022-11-15T15:29:11;12.63;;;4.45;;
34673;SDS011;20879;55.668;37.858;2022-11-15T15:31:48;14.85;;;5.85;;
34673;SDS011;20879;55.668;37.858;2022-11-15T15:34:22;11.15;;;5.53;;
34673;SDS011;20879;55.668;37.858;2022-11-15T15:37:05;9.05;;;5.15;;
34673;SDS011;20879;55.668;37.858;2022-11-15T15:39:36;9.93;;;4.90;;
34673;SDS011;20879;55.668;37.858;2022-11-15T15:42:05;9.85;;;4.63;;
34673;SDS011;20879;55.668;37.858;2022-11-15T15:44:35;11.63;;;4.80;;
34673;SDS011;20879;55.668;37.858;2022-11-15T15:47:08;8.10;;;4.07;;
34673;SDS011;20879;55.668;37.858;2022-11-15T15:49:40;11.30;;;3.72;;
34673;SDS011;20879;55.668;37.858;2022-11-15T15:52:09;9.23;;;4.10;;
34673;SDS011;20879;55.668;37.858;2022-11-15T15:54:39;10.27;;;4.05;;
34673;SDS011;20879;55.668;37.858;2022-11-15T15:57:10;10.98;;;3.90;;
34673;SDS011;20879;55.668;37.858;2022-11-15T15:59:50;7.80;;;3.75;;
34673;SDS011;20879;55.668;37.858;2022-11-15T16:02:22;6.60;;;3.30;;
34673;SDS011;20879;55.668;37.858;2022-11-15T16:04:51;6.18;;;2.75;;
34673;SDS011;20879;55.668;37.858;2022-11-15T16:07:21;8.00;;;4.13;;
34673;SDS011;20879;55.668;37.858;2022-11-15T16:09:51;7.20;;;3.58;;
34673;SDS011;20879;55.668;37.858;2022-11-15T16:12:31;10.68;;;3.80;;
34673;SDS011;20879;55.668;37.858;2022-11-15T16:15:01;12.87;;;4.33;;
34673;SDS011;20879;55.668;37.858;2022-11-15T16:17:34;9.43;;;5.07;;
34673;SDS011;20879;55.668;37.858;2022-11-15T16:20:06;13.63;;;7.22;;
34673;SDS011;20879;55.668;37.858;2022-11-15T16:22:43;10.40;;;5.78;;
34673;SDS011;20879;55.668;37.858;2022-11-15T16:25:13;9.50;;;4.68;;
34673;SDS011;20879;55.668;37.858;2022-11-15T16:27:47;11.02;;;5.28;;
34673;SDS011;20879;55.668;37.858;2022-11-15T16:30:17;13.00;;;5.65;;
34673;SDS011;20879;55.668;37.858;2022-11-15T16:32:50;10.18;;;4.93;;
34673;SDS011;20879;55.668;37.858;2022-11-15T16:35:20;13.73;;;4.68;;
34673;SDS011;20879;55.668;37.858;2022-11-15T16:37:50;7.80;;;4.57;;
34673;SDS011;20879;55.668;37.858;2022-11-15T16:40:23;9.15;;;4.55;;
34673;SDS011;20879;55.668;37.858;2022-11-15T16:42:56;8.68;;;4.13;;
34673;SDS011;20879;55.668;37.858;2022-11-15T16:45:33;8.48;;;4.28;;
34673;SDS011;20879;55.668;37.858;2022-11-15T16:48:06;7.38;;;3.90;;
34673;SDS011;20879;55.668;37.858;2022-11-15T16:50:43;8.30;;;3.95;;
34673;SDS011;20879;55.668;37.858;2022-11-15T16:53:13;7.82;;;4.50;;
34673;SDS011;20879;55.668;37.858;2022-11-15T16:55:42;8.65;;;4.13;;
34673;SDS011;20879;55.668;37.858;2022-11-15T16:58:11;7.35;;;4.35;;
34673;SDS011;20879;55.668;37.858;2022-11-15T17:00:41;8.35;;;3.80;;
34673;SDS011;20879;55.668;37.858;2022-11-15T17:03:12;10.48;;;4.90;;
34673;SDS011;20879;55.668;37.858;2022-11-15T17:05:41;11.55;;;4.57;;
34673;SDS011;20879;55.668;37.858;2022-11-15T17:08:11;8.35;;;4.00;;
34673;SDS011;20879;55.668;37.858;2022-11-15T17:10:40;10.25;;;4.30;;
34673;SDS011;20879;55.668;37.858;2022-11-15T17:13:10;8.70;;;3.40;;